Significant Other — WDB7278 — position and weather

sailwx.info

Track history (hours):
 
Tides and Currents Weather Stations Pressure Air Temp Water Temp Dewpoint Dewpoint Depression Visibility Wind Speed Wind Dir Waves Ship Positions

Significant Other

More information available from US FCC via Universal Licensing System and Coast Guard Vessel Documentation Center.

Last reported at 2014-Jul-10 23:08 UTC. Time now 2014-Jul-22 19:32 UTC.
Position N 47°35' W 122°33'.
Warning: this ship's position is 11 days out of date.

Length 13 m; draft 2 m.

Type: Sailing vessel. MMSI: 366896730.

Date/timePositionNaut miles runAvg speedWind from/ knotsBaromVisibWave heightAir tempDewpointWater temp
2014-Jul-10 23:08N 47°35' W 122°33'3 5.7
2014-Jul-10 22:33N 47°35' W 122°28'0 6.6
2014-Jul-10 22:30N 47°36' W 122°28'6 6.7
2014-Jul-10 21:33N 47°42' W 122°29'0 6.4
2014-Jul-10 21:30N 47°42' W 122°29'6 6.8
2014-Jul-10 20:33N 47°49' W 122°29'7 7.2
2014-Jul-10 19:33N 47°56' W 122°32'33 6.5
2014-Jul-10 14:28N 48°24' W 122°56'7 7.8
2014-Jul-10 13:33N 48°31' W 122°58'2 0.1
2014-Jul-08 21:31N 48°32' W 123°01'2 2.5
2014-Jul-08 20:33N 48°35' W 123°00'1 1.1
2014-Jul-08 19:33N 48°34' W 122°60'1 0.1
2014-Jul-07 23:33N 48°33' W 123°01'2 1.6
2014-Jul-07 22:32N 48°32' W 122°58'2 0.3
2014-Jul-07 17:33N 48°33' W 123°00'0 0.0
2014-Jul-06 23:33N 48°33' W 123°00'1 1.0
2014-Jul-06 22:32N 48°34' W 122°59'0 0.0
2014-Jul-06 21:32N 48°34' W 122°59'0 0.0
2014-Jul-06 20:32N 48°34' W 122°59'0 0.0
2014-Jul-06 19:26N 48°34' W 122°59'2 1.9
2014-Jul-06 18:33N 48°32' W 123°01'0 0.0
2014-Jul-05 21:30N 48°32' W 123°01'2 0.4
2014-Jul-05 17:19N 48°32' W 122°58'0 0.0
2014-Jul-05 01:22N 48°32' W 122°58'0 0.0
2014-Jul-04 20:17N 48°32' W 122°58'2 1.0
2014-Jul-04 18:33N 48°30' W 122°60'0 0.0
2014-Jul-04 17:33N 48°30' W 122°59'0 0.0
2014-Jul-04 16:30N 48°30' W 122°59'1 1.1
2014-Jul-04 15:33N 48°31' W 123°01'0 0.0
2014-Jul-04 03:10N 48°31' W 123°01'0 0.0
2014-Jul-04 02:31N 48°31' W 123°01'5 5.2
2014-Jul-04 01:32N 48°27' W 122°56'0 0.0
2014-Jul-03 16:31N 48°27' W 122°56'0 0.0
2014-Jul-03 15:31N 48°27' W 122°56'0 0.0
2014-Jul-03 14:28N 48°27' W 122°56'2 0.1
2014-Jul-02 20:30N 48°26' W 122°53'32 2.3
2014-Jul-02 06:32N 47°56' W 122°34'7 7.3
2014-Jul-02 05:33N 47°50' W 122°29'1 6.2
2014-Jul-02 05:28N 47°50' W 122°29'5 5.9
2014-Jul-02 04:33N 47°44' W 122°30'0 0.0
2014-Jul-02 04:33N 47°44' W 122°30'8 5.5
2014-Jul-02 03:08N 47°37' W 122°35'3 6.0
2014-Jul-02 02:42N 47°35' W 122°36'1 6.4
2014-Jul-02 02:33N 47°34' W 122°36'1 5.1
2014-Jul-02 02:22N 47°33' W 122°37'  
Track history (hours):
 
Tides and Currents Weather Stations Pressure Air Temp Water Temp Dewpoint Dewpoint Depression Visibility Wind Speed Wind Dir Waves Ship Positions

Significant Other

More information available from US FCC via Universal Licensing System and Coast Guard Vessel Documentation Center.

Last reported at 2014-Jul-10 23:08 UTC. Time now 2014-Jul-22 19:32 UTC.
Position N 47°35' W 122°33'.
Warning: this ship's position is 11 days out of date.

Length 13 m; draft 2 m.

Type: Sailing vessel. MMSI: 366896730.

Date/timePositionNaut miles runAvg speedWind from/ knotsBaromVisibWave heightAir tempDewpointWater temp
2014-Jul-10 23:08N 47°35' W 122°33'3 5.7
2014-Jul-10 22:33N 47°35' W 122°28'0 6.6
2014-Jul-10 22:30N 47°36' W 122°28'6 6.7
2014-Jul-10 21:33N 47°42' W 122°29'0 6.4
2014-Jul-10 21:30N 47°42' W 122°29'6 6.8
2014-Jul-10 20:33N 47°49' W 122°29'7 7.2
2014-Jul-10 19:33N 47°56' W 122°32'33 6.5
2014-Jul-10 14:28N 48°24' W 122°56'7 7.8
2014-Jul-10 13:33N 48°31' W 122°58'2 0.1
2014-Jul-08 21:31N 48°32' W 123°01'2 2.5
2014-Jul-08 20:33N 48°35' W 123°00'1 1.1
2014-Jul-08 19:33N 48°34' W 122°60'1 0.1
2014-Jul-07 23:33N 48°33' W 123°01'2 1.6
2014-Jul-07 22:32N 48°32' W 122°58'2 0.3
2014-Jul-07 17:33N 48°33' W 123°00'0 0.0
2014-Jul-06 23:33N 48°33' W 123°00'1 1.0
2014-Jul-06 22:32N 48°34' W 122°59'0 0.0
2014-Jul-06 21:32N 48°34' W 122°59'0 0.0
2014-Jul-06 20:32N 48°34' W 122°59'0 0.0
2014-Jul-06 19:26N 48°34' W 122°59'2 1.9
2014-Jul-06 18:33N 48°32' W 123°01'0 0.0
2014-Jul-05 21:30N 48°32' W 123°01'2 0.4
2014-Jul-05 17:19N 48°32' W 122°58'0 0.0
2014-Jul-05 01:22N 48°32' W 122°58'0 0.0
2014-Jul-04 20:17N 48°32' W 122°58'2 1.0
2014-Jul-04 18:33N 48°30' W 122°60'0 0.0
2014-Jul-04 17:33N 48°30' W 122°59'0 0.0
2014-Jul-04 16:30N 48°30' W 122°59'1 1.1
2014-Jul-04 15:33N 48°31' W 123°01'0 0.0
2014-Jul-04 03:10N 48°31' W 123°01'0 0.0
2014-Jul-04 02:31N 48°31' W 123°01'5 5.2
2014-Jul-04 01:32N 48°27' W 122°56'0 0.0
2014-Jul-03 16:31N 48°27' W 122°56'0 0.0
2014-Jul-03 15:31N 48°27' W 122°56'0 0.0
2014-Jul-03 14:28N 48°27' W 122°56'2 0.1
2014-Jul-02 20:30N 48°26' W 122°53'32 2.3
2014-Jul-02 06:32N 47°56' W 122°34'7 7.3
2014-Jul-02 05:33N 47°50' W 122°29'1 6.2
2014-Jul-02 05:28N 47°50' W 122°29'5 5.9
2014-Jul-02 04:33N 47°44' W 122°30'0 0.0
2014-Jul-02 04:33N 47°44' W 122°30'8 5.5
2014-Jul-02 03:08N 47°37' W 122°35'3 6.0
2014-Jul-02 02:42N 47°35' W 122°36'1 6.4
2014-Jul-02 02:33N 47°34' W 122°36'1 5.1
2014-Jul-02 02:22N 47°33' W 122°37'  

Dump ship's entire track history